createdAt,value
2019-03-22T00:03:51.626Z,100.00
2019-03-22T00:06:21.429Z,100.00
2019-03-22T00:08:51.516Z,100.00
2019-03-22T00:11:21.741Z,100.00
2019-03-22T00:13:51.588Z,100.00
2019-03-22T00:16:22.246Z,100.00
2019-03-22T00:18:52.094Z,100.00
2019-03-22T00:21:21.921Z,100.00
2019-03-22T00:23:51.757Z,100.00
2019-03-22T00:26:21.516Z,100.00
2019-03-22T00:28:51.320Z,100.00
2019-03-22T00:31:21.462Z,100.00
2019-03-22T00:33:51.572Z,100.00
2019-03-22T00:36:21.370Z,100.00
2019-03-22T00:38:51.445Z,100.00
2019-03-22T00:41:22.198Z,100.00
2019-03-22T00:43:52.010Z,100.00
2019-03-22T00:46:40.706Z,100.00
2019-03-22T00:49:10.502Z,100.00
2019-03-22T00:51:40.297Z,100.00
2019-03-22T00:54:10.069Z,100.00
2019-03-22T00:56:39.842Z,100.00
2019-03-22T00:59:09.668Z,100.00
2019-03-22T01:01:39.424Z,100.00
2019-03-22T01:04:09.355Z,100.00
2019-03-22T01:06:39.389Z,100.00
2019-03-22T01:09:09.210Z,100.00
2019-03-22T01:11:38.963Z,100.00
2019-03-22T01:14:08.733Z,100.00
2019-03-22T01:16:38.582Z,100.00
2019-03-22T01:19:08.407Z,100.00
2019-03-22T01:21:38.433Z,100.00
2019-03-22T01:24:08.212Z,100.00
2019-03-22T01:26:37.962Z,100.00
2019-03-22T01:29:08.040Z,100.00
2019-03-22T01:31:37.851Z,100.00
2019-03-22T01:34:07.649Z,100.00
2019-03-22T01:36:37.409Z,100.00
2019-03-22T01:39:08.132Z,100.00
2019-03-22T01:41:37.895Z,100.00
2019-03-22T01:44:07.690Z,100.00
2019-03-22T01:46:37.429Z,100.00
2019-03-22T01:49:07.249Z,100.00
2019-03-22T01:51:36.995Z,100.00
2019-03-22T01:54:07.202Z,100.00
2019-03-22T01:56:37.227Z,100.00
2019-03-22T01:59:07.016Z,100.00
2019-03-22T02:01:36.820Z,100.00
2019-03-22T02:04:06.978Z,100.00
2019-03-22T02:06:37.159Z,100.00
2019-03-22T02:09:08.216Z,100.00
2019-03-22T02:11:38.066Z,100.00
2019-03-22T02:14:07.826Z,100.00
2019-03-22T02:16:37.615Z,100.00
2019-03-22T02:19:07.410Z,100.00
2019-03-22T02:21:37.235Z,100.00
2019-03-22T02:24:07.022Z,100.00
2019-03-22T02:26:36.816Z,100.00
2019-03-22T02:29:06.695Z,100.00
2019-03-22T02:31:36.788Z,100.00
2019-03-22T02:34:06.538Z,100.00
2019-03-22T02:36:36.336Z,100.00
2019-03-22T02:39:46.040Z,100.00
2019-03-22T02:42:15.960Z,100.00
2019-03-22T02:44:45.775Z,100.00
2019-03-22T02:47:15.547Z,100.00
2019-03-22T02:49:45.630Z,100.00
2019-03-22T02:52:15.431Z,100.00
2019-03-22T02:54:45.181Z,100.00
2019-03-22T02:57:14.974Z,100.00
2019-03-22T02:59:44.781Z,100.00
2019-03-22T03:02:14.542Z,100.00
2019-03-22T03:04:44.320Z,100.00
2019-03-22T03:07:14.136Z,100.00
2019-03-22T03:09:43.894Z,100.00
2019-03-22T03:12:13.677Z,100.00
2019-03-22T03:14:43.452Z,100.00
2019-03-22T03:17:13.219Z,100.00
2019-03-22T03:19:42.983Z,100.00
2019-03-22T03:22:14.804Z,100.00
2019-03-22T03:24:44.566Z,100.00
2019-03-22T03:27:14.353Z,100.00
2019-03-22T03:29:44.141Z,100.00
2019-03-22T03:32:14.251Z,100.00
2019-03-22T03:34:43.987Z,100.00
2019-03-22T03:37:13.909Z,100.00
2019-03-22T03:39:43.708Z,100.00
2019-03-22T03:42:13.749Z,100.00
2019-03-22T03:44:43.517Z,100.00
2019-03-22T03:47:13.415Z,100.00
2019-03-22T03:49:43.203Z,100.00
2019-03-22T03:52:13.075Z,100.00
2019-03-22T03:54:42.891Z,100.00
2019-03-22T03:57:12.725Z,100.00
2019-03-22T03:59:42.541Z,100.00
2019-03-22T04:02:12.371Z,100.00
2019-03-22T04:04:42.155Z,100.00
2019-03-22T04:07:11.953Z,100.00
2019-03-22T04:09:41.731Z,100.00
2019-03-22T04:12:11.647Z,100.00
2019-03-22T04:14:41.429Z,100.00
2019-03-22T04:17:11.241Z,100.00
2019-03-22T04:19:41.009Z,100.00
2019-03-22T04:22:10.807Z,100.00
2019-03-22T04:24:41.587Z,100.00
2019-03-22T04:27:11.337Z,100.00
2019-03-22T04:29:41.127Z,100.00
2019-03-22T04:32:10.922Z,100.00
2019-03-22T04:34:40.944Z,100.00
2019-03-22T04:37:10.701Z,100.00
2019-03-22T04:39:40.790Z,100.00
2019-03-22T04:42:11.093Z,100.00
2019-03-22T04:44:40.914Z,100.00
2019-03-22T04:51:00.399Z,100.00
2019-03-22T04:54:09.317Z,100.00
2019-03-22T04:56:59.382Z,100.00
2019-03-22T05:05:21.998Z,100.00
2019-03-22T05:08:30.911Z,100.00
2019-03-22T05:11:39.793Z,100.00
2019-03-22T05:14:10.561Z,100.00
2019-03-22T05:17:19.431Z,100.00
2019-03-22T05:20:10.861Z,100.00
2019-03-22T05:23:01.104Z,100.00
2019-03-22T05:25:51.403Z,100.00
2019-03-22T05:28:21.191Z,100.00
2019-03-22T05:31:28.484Z,100.00
2019-03-22T05:33:58.297Z,100.00
2019-03-22T05:36:28.055Z,100.00
2019-03-22T05:38:57.886Z,100.00
2019-03-22T05:41:27.695Z,100.00
2019-03-22T05:46:33.012Z,100.00
2019-03-22T05:49:02.841Z,100.00
2019-03-22T05:51:32.586Z,100.00
2019-03-22T05:54:02.382Z,100.00
2019-03-22T05:56:32.170Z,100.00
2019-03-22T05:59:02.304Z,100.00
2019-03-22T06:01:32.185Z,100.00
2019-03-22T06:04:02.258Z,100.00
2019-03-22T06:06:32.060Z,100.00
2019-03-22T06:09:01.898Z,100.00
2019-03-22T06:11:31.707Z,100.00
2019-03-22T06:14:01.557Z,100.00
2019-03-22T06:16:31.422Z,100.00
2019-03-22T06:19:01.543Z,100.00
2019-03-22T06:21:31.386Z,100.00
2019-03-22T06:24:01.181Z,100.00
2019-03-22T06:26:31.263Z,100.00
2019-03-22T06:29:01.230Z,100.00
2019-03-22T06:32:10.112Z,100.00
2019-03-22T06:34:39.894Z,100.00
2019-03-22T06:37:09.734Z,100.00
2019-03-22T06:39:39.516Z,100.00
2019-03-22T06:42:09.570Z,100.00
2019-03-22T06:44:39.358Z,100.00
2019-03-22T06:47:11.104Z,100.00
2019-03-22T06:49:40.678Z,100.00
2019-03-22T06:52:10.471Z,100.00
2019-03-22T06:54:40.234Z,100.00
2019-03-22T06:57:10.035Z,100.00
2019-03-22T06:59:40.058Z,100.00
2019-03-22T07:02:09.850Z,100.00
2019-03-22T07:04:39.874Z,100.00
2019-03-22T07:07:09.679Z,100.00
2019-03-22T07:09:39.452Z,100.00
2019-03-22T07:12:09.240Z,100.00
2019-03-22T07:14:39.011Z,100.00
2019-03-22T07:17:08.823Z,100.00
2019-03-22T07:19:38.583Z,100.00
2019-03-22T07:22:08.383Z,100.00
2019-03-22T07:24:38.171Z,100.00
2019-03-22T07:27:07.973Z,100.00
2019-03-22T07:29:37.799Z,100.00
2019-03-22T07:32:07.633Z,100.00
2019-03-22T07:34:37.400Z,100.00
2019-03-22T07:37:07.176Z,100.00
2019-03-22T07:39:37.222Z,100.00
2019-03-22T07:42:07.026Z,100.00
2019-03-22T07:44:36.802Z,100.00
2019-03-22T07:47:06.586Z,100.00
2019-03-22T07:49:36.452Z,100.00
2019-03-22T07:52:06.297Z,100.00
2019-03-22T07:54:36.068Z,100.00
2019-03-22T07:57:05.898Z,100.00
2019-03-22T07:59:35.665Z,100.00
2019-03-22T08:02:05.467Z,100.00
2019-03-22T08:04:35.232Z,100.00
2019-03-22T08:07:05.015Z,100.00
2019-03-22T08:09:34.845Z,100.00
2019-03-22T08:12:04.667Z,100.00
2019-03-22T08:14:34.436Z,100.00
2019-03-22T08:17:04.288Z,100.00
2019-03-22T08:19:34.005Z,100.00
2019-03-22T08:22:04.211Z,100.00
2019-03-22T08:24:33.989Z,100.00
2019-03-22T08:27:03.801Z,100.00
2019-03-22T08:29:33.584Z,100.00
2019-03-22T08:32:03.419Z,100.00
2019-03-22T08:34:33.437Z,100.00
2019-03-22T08:37:03.222Z,100.00
2019-03-22T08:39:33.030Z,100.00
2019-03-22T08:42:02.794Z,100.00
2019-03-22T08:44:32.540Z,100.00
2019-03-22T08:47:02.341Z,100.00
2019-03-22T08:49:32.303Z,100.00
2019-03-22T08:52:02.205Z,100.00
2019-03-22T08:54:32.509Z,100.00
2019-03-22T08:57:02.348Z,100.00
2019-03-22T08:59:32.143Z,100.00
2019-03-22T09:02:01.903Z,100.00
2019-03-22T09:04:31.763Z,100.00
2019-03-22T09:07:01.697Z,100.00
2019-03-22T09:09:40.952Z,100.00
2019-03-22T09:12:03.022Z,100.00
2019-03-22T09:14:32.800Z,100.00
2019-03-22T09:17:02.579Z,100.00
2019-03-22T09:19:32.413Z,100.00
2019-03-22T09:22:02.246Z,100.00
2019-03-22T09:24:39.088Z,100.00
2019-03-22T09:27:04.558Z,100.00
2019-03-22T09:29:34.417Z,100.00
2019-03-22T09:32:04.222Z,100.00
2019-03-22T09:34:34.331Z,100.00
2019-03-22T09:37:08.627Z,100.00
2019-03-22T09:39:39.727Z,100.00
2019-03-22T09:44:58.723Z,100.00
2019-03-22T09:47:28.871Z,100.00
2019-03-22T09:52:54.113Z,100.00
2019-03-22T09:55:23.947Z,100.00
2019-03-22T09:57:53.884Z,100.00
2019-03-22T10:00:42.522Z,100.00
2019-03-22T10:03:12.674Z,100.00
2019-03-22T10:08:32.860Z,100.00
2019-03-22T10:11:04.104Z,100.00
2019-03-22T10:13:34.414Z,100.00
2019-03-22T10:16:04.308Z,100.00
2019-03-22T10:18:36.764Z,100.00
2019-03-22T10:26:23.044Z,100.00
2019-03-22T10:28:57.707Z,100.00
2019-03-22T10:31:36.986Z,100.00
2019-03-22T10:42:58.335Z,100.00
2019-03-22T10:45:28.329Z,100.00
2019-03-22T10:53:39.587Z,100.00
2019-03-22T10:57:06.159Z,96.48
2019-03-22T10:59:54.995Z,97.08
2019-03-22T11:11:23.724Z,91.69
2019-03-22T11:14:02.217Z,89.45
2019-03-22T11:25:13.729Z,86.50
2019-03-22T11:27:44.550Z,88.19
2019-03-22T11:30:17.970Z,84.50
2019-03-22T11:32:47.865Z,86.53
2019-03-22T11:43:47.588Z,80.60
2019-03-22T11:46:20.469Z,82.10
2019-03-22T11:51:43.750Z,77.88
2019-03-22T11:54:34.235Z,74.40
2019-03-22T11:57:06.668Z,74.87
2019-03-22T11:59:37.362Z,80.10
2019-03-22T12:02:26.068Z,78.03
2019-03-22T12:07:54.785Z,72.80
2019-03-22T12:10:27.043Z,65.99
2019-03-22T12:13:15.579Z,65.79
2019-03-22T12:15:46.511Z,65.79
2019-03-22T12:18:19.901Z,68.76
2019-03-22T12:20:49.823Z,65.52
2019-03-22T12:23:20.097Z,65.99
2019-03-22T12:25:50.257Z,62.67
2019-03-22T12:28:30.041Z,60.96
2019-03-22T12:33:34.728Z,62.93
2019-03-22T12:36:04.774Z,62.93
2019-03-22T12:38:55.306Z,62.42
2019-03-22T12:41:43.902Z,59.78
2019-03-22T12:44:32.478Z,65.06
2019-03-22T12:47:02.264Z,65.06
2019-03-22T12:49:32.070Z,61.09
2019-03-22T12:52:01.840Z,58.09
2019-03-22T12:54:31.608Z,59.60
2019-03-22T12:57:01.720Z,57.18
2019-03-22T12:59:32.080Z,59.46
2019-03-22T13:02:02.158Z,56.57
2019-03-22T13:04:31.930Z,56.81
2019-03-22T13:07:01.737Z,56.78
2019-03-22T13:09:31.496Z,59.76
2019-03-22T13:12:01.598Z,57.89
2019-03-22T13:14:31.367Z,56.08
2019-03-22T13:17:01.443Z,54.80
2019-03-22T13:19:31.466Z,54.82
2019-03-22T13:22:01.285Z,55.28
2019-03-22T13:24:31.325Z,58.61
2019-03-22T13:27:01.109Z,58.44
2019-03-22T13:29:30.885Z,56.92
2019-03-22T13:32:00.647Z,56.75
2019-03-22T13:34:30.467Z,56.67
2019-03-22T13:37:00.250Z,57.74
2019-03-22T13:39:30.288Z,53.12
2019-03-22T13:42:00.026Z,47.99
2019-03-22T13:44:30.066Z,45.59
2019-03-22T13:46:59.831Z,43.83
2019-03-22T13:49:29.941Z,42.14
2019-03-22T13:51:59.699Z,40.82
2019-03-22T13:54:29.477Z,40.31
2019-03-22T13:57:19.596Z,40.77
2019-03-22T13:59:49.658Z,38.75
2019-03-22T14:02:19.708Z,38.55
2019-03-22T14:04:49.748Z,37.69
2019-03-22T14:07:19.502Z,37.32
2019-03-22T14:09:49.264Z,38.43
2019-03-22T14:12:19.315Z,37.70
2019-03-22T14:14:49.118Z,36.92
2019-03-22T14:17:18.865Z,36.86
2019-03-22T14:19:48.934Z,36.54
2019-03-22T14:22:18.700Z,35.51
2019-03-22T14:24:49.317Z,37.36
2019-03-22T14:27:19.388Z,36.03
2019-03-22T14:29:49.175Z,35.41
2019-03-22T14:32:19.247Z,35.57
2019-03-22T14:34:49.337Z,36.24
2019-03-22T14:37:19.108Z,35.55
2019-03-22T14:39:49.310Z,35.82
2019-03-22T14:42:19.019Z,35.39
2019-03-22T14:44:48.805Z,34.97
2019-03-22T14:47:18.557Z,33.35
2019-03-22T14:49:48.353Z,32.85
2019-03-22T14:52:18.158Z,33.56
2019-03-22T14:54:48.216Z,34.12
2019-03-22T14:57:18.549Z,33.67
2019-03-22T14:59:58.404Z,34.48
2019-03-22T15:02:19.801Z,34.49
2019-03-22T15:04:49.859Z,34.08
2019-03-22T15:07:20.218Z,34.40
2019-03-22T15:09:51.107Z,34.65
2019-03-22T15:12:21.116Z,33.40
2019-03-22T15:17:53.460Z,33.39
2019-03-22T15:20:42.723Z,33.45
2019-03-22T15:23:31.719Z,34.14
2019-03-22T15:26:20.436Z,34.42
2019-03-22T15:29:09.456Z,33.80
2019-03-22T15:31:58.524Z,32.73
2019-03-22T15:34:47.296Z,32.79
2019-03-22T15:40:06.745Z,34.00
2019-03-22T15:42:36.496Z,34.74
2019-03-22T15:45:30.245Z,33.67
2019-03-22T15:48:00.106Z,34.04
2019-03-22T15:50:29.870Z,33.18
2019-03-22T15:52:59.638Z,32.80
2019-03-22T15:55:29.414Z,33.54
2019-03-22T15:57:59.427Z,33.77
2019-03-22T16:00:29.489Z,34.17
2019-03-22T16:02:59.573Z,34.49
2019-03-22T16:05:29.335Z,34.60
2019-03-22T16:07:59.130Z,34.94
2019-03-22T16:10:28.875Z,36.74
2019-03-22T16:12:58.658Z,37.07
2019-03-22T16:15:28.437Z,37.49
2019-03-22T16:17:58.217Z,37.22
2019-03-22T16:20:27.979Z,39.28
2019-03-22T16:22:58.112Z,42.05
2019-03-22T16:25:27.881Z,43.68
2019-03-22T16:27:57.929Z,43.90
2019-03-22T16:30:27.664Z,43.23
2019-03-22T16:32:57.464Z,43.64
2019-03-22T16:35:27.211Z,43.64
2019-03-22T16:37:56.987Z,44.11
2019-03-22T16:40:26.746Z,44.41
2019-03-22T16:42:56.529Z,43.72
2019-03-22T16:45:45.526Z,43.13
2019-03-22T16:48:15.305Z,42.35
2019-03-22T16:50:45.070Z,42.16
2019-03-22T16:53:53.967Z,44.19
2019-03-22T16:56:24.011Z,47.18
2019-03-22T16:58:53.807Z,53.07
2019-03-22T17:01:23.548Z,57.19
2019-03-22T17:03:53.650Z,61.57
2019-03-22T17:06:23.657Z,64.90
2019-03-22T17:08:53.996Z,67.76
2019-03-22T17:11:24.025Z,69.77
2019-03-22T17:13:54.442Z,69.93
2019-03-22T17:16:24.212Z,72.23
2019-03-22T17:19:13.104Z,75.64
2019-03-22T17:21:42.847Z,75.64
2019-03-22T17:24:12.620Z,76.57
2019-03-22T17:26:42.369Z,77.84
2019-03-22T17:29:12.427Z,77.22
2019-03-22T17:31:42.181Z,77.34
2019-03-22T17:34:14.514Z,78.23
2019-03-22T17:37:02.603Z,77.74
2019-03-22T17:39:32.418Z,79.10
2019-03-22T17:42:02.772Z,79.82
2019-03-22T17:44:32.594Z,79.57
2019-03-22T17:47:02.671Z,79.90
2019-03-22T17:49:32.578Z,82.34
2019-03-22T17:52:02.671Z,85.21
2019-03-22T17:54:32.478Z,85.94
2019-03-22T17:57:02.533Z,85.83
2019-03-22T17:59:32.717Z,85.95
2019-03-22T18:02:02.534Z,87.75
2019-03-22T18:04:32.392Z,88.90
2019-03-22T18:07:02.226Z,89.24
2019-03-22T18:09:32.944Z,90.51
2019-03-22T18:12:02.793Z,91.59
2019-03-22T18:14:32.638Z,92.61
2019-03-22T18:17:02.736Z,94.81
2019-03-22T18:19:32.876Z,95.04
2019-03-22T18:22:02.663Z,96.50
2019-03-22T18:24:33.597Z,97.95
2019-03-22T18:27:03.412Z,98.70
2019-03-22T18:29:34.183Z,100.00
2019-03-22T18:32:15.889Z,100.00
2019-03-22T18:34:46.381Z,100.00
2019-03-22T18:37:16.788Z,100.00
2019-03-22T18:39:46.610Z,100.00
2019-03-22T18:42:35.218Z,100.00
2019-03-22T18:45:24.207Z,100.00
2019-03-22T18:47:54.011Z,100.00
2019-03-22T18:50:23.841Z,100.00
2019-03-22T18:52:53.637Z,100.00
2019-03-22T18:55:23.460Z,100.00
2019-03-22T18:57:53.261Z,100.00
2019-03-22T19:00:23.440Z,100.00
2019-03-22T19:02:53.553Z,100.00
2019-03-22T19:05:23.384Z,100.00
2019-03-22T19:08:12.300Z,100.00
2019-03-22T19:10:42.137Z,100.00
2019-03-22T19:13:11.971Z,100.00
2019-03-22T19:15:41.803Z,100.00
2019-03-22T19:18:11.890Z,100.00
2019-03-22T19:20:41.729Z,100.00
2019-03-22T19:23:11.795Z,100.00
2019-03-22T19:26:00.411Z,100.00
2019-03-22T19:28:30.165Z,100.00
2019-03-22T19:31:00.559Z,100.00
2019-03-22T19:33:30.375Z,100.00
2019-03-22T19:36:01.390Z,100.00
2019-03-22T19:38:50.247Z,100.00
2019-03-22T19:47:04.878Z,100.00
2019-03-22T19:49:34.653Z,100.00
2019-03-22T19:52:05.148Z,100.00
2019-03-22T19:54:35.219Z,100.00
2019-03-22T19:57:23.814Z,100.00
2019-03-22T19:59:54.585Z,100.00
2019-03-22T20:02:24.498Z,100.00
2019-03-22T20:05:04.929Z,100.00
2019-03-22T20:07:51.689Z,100.00
2019-03-22T20:10:40.791Z,100.00
2019-03-22T20:13:11.241Z,100.00
2019-03-22T20:15:41.541Z,100.00
2019-03-22T20:18:30.942Z,100.00
2019-03-22T20:21:01.135Z,100.00
2019-03-22T20:23:30.938Z,100.00
2019-03-22T20:26:00.731Z,100.00
2019-03-22T20:28:30.635Z,100.00
2019-03-22T20:31:00.743Z,100.00
2019-03-22T20:33:30.599Z,100.00
2019-03-22T20:36:00.467Z,100.00
2019-03-22T20:38:30.630Z,100.00
2019-03-22T20:41:01.412Z,100.00
2019-03-22T20:43:34.844Z,100.00
2019-03-22T20:46:05.982Z,100.00
2019-03-22T20:48:36.556Z,100.00
2019-03-22T20:51:25.491Z,100.00
2019-03-22T20:53:55.664Z,100.00
2019-03-22T20:56:25.649Z,100.00
2019-03-22T20:58:55.364Z,100.00
2019-03-22T21:01:25.585Z,100.00
2019-03-22T21:03:55.577Z,100.00
2019-03-22T21:06:25.399Z,100.00
2019-03-22T21:08:55.558Z,100.00
2019-03-22T21:11:25.626Z,100.00
2019-03-22T21:13:55.921Z,100.00
2019-03-22T21:16:25.952Z,100.00
2019-03-22T21:18:56.025Z,100.00
2019-03-22T21:21:35.994Z,100.00
2019-03-22T21:23:58.239Z,100.00
2019-03-22T21:26:27.997Z,100.00
2019-03-22T21:28:58.081Z,100.00
2019-03-22T21:31:28.109Z,100.00
2019-03-22T21:33:58.034Z,100.00
2019-03-22T21:36:27.806Z,100.00
2019-03-22T21:38:57.902Z,100.00
2019-03-22T21:41:27.998Z,100.00
2019-03-22T21:43:57.878Z,100.00
2019-03-22T21:46:27.639Z,100.00
2019-03-22T21:48:57.416Z,100.00
2019-03-22T21:51:28.164Z,100.00
2019-03-22T21:53:58.307Z,100.00
2019-03-22T21:56:28.075Z,100.00
2019-03-22T21:58:57.964Z,100.00
2019-03-22T22:01:28.022Z,100.00
2019-03-22T22:03:58.135Z,100.00
2019-03-22T22:06:28.178Z,100.00
2019-03-22T22:08:58.071Z,100.00
2019-03-22T22:11:27.858Z,100.00
2019-03-22T22:13:58.058Z,100.00
2019-03-22T22:16:27.886Z,100.00
2019-03-22T22:18:57.908Z,100.00
2019-03-22T22:21:27.709Z,100.00
2019-03-22T22:23:57.625Z,100.00
2019-03-22T22:26:27.684Z,100.00
2019-03-22T22:28:58.047Z,100.00
2019-03-22T22:31:27.802Z,100.00
2019-03-22T22:33:58.709Z,100.00
2019-03-22T22:36:28.585Z,100.00
2019-03-22T22:38:58.378Z,100.00
2019-03-22T22:41:28.575Z,100.00
2019-03-22T22:43:58.739Z,100.00
2019-03-22T22:46:29.244Z,100.00
2019-03-22T22:48:59.359Z,100.00
2019-03-22T22:51:29.211Z,100.00
2019-03-22T22:53:59.373Z,100.00
2019-03-22T22:56:29.256Z,100.00
2019-03-22T22:58:59.048Z,100.00
2019-03-22T23:01:28.839Z,100.00
2019-03-22T23:03:58.608Z,100.00
2019-03-22T23:06:28.408Z,100.00
2019-03-22T23:08:58.158Z,100.00
2019-03-22T23:12:07.114Z,100.00
2019-03-22T23:14:36.883Z,100.00
2019-03-22T23:17:06.821Z,100.00
2019-03-22T23:19:36.614Z,100.00
2019-03-22T23:22:06.381Z,100.00
2019-03-22T23:24:36.415Z,100.00
2019-03-22T23:27:06.617Z,100.00
2019-03-22T23:29:36.386Z,100.00
2019-03-22T23:32:06.471Z,100.00
2019-03-22T23:34:36.587Z,100.00
2019-03-22T23:37:07.275Z,100.00
2019-03-22T23:39:37.885Z,100.00
2019-03-22T23:42:07.695Z,100.00
2019-03-22T23:44:37.544Z,100.00
2019-03-22T23:47:07.371Z,100.00
2019-03-22T23:49:37.133Z,100.00
2019-03-22T23:52:06.945Z,100.00
2019-03-22T23:54:36.764Z,100.00
2019-03-22T23:57:06.576Z,100.00
2019-03-22T23:59:36.343Z,100.00
